Time;durP1;ratioP1;P1;durP2;ratioP2;P2;SDS_P1;SDS_P2;PMS_P1;PMS_P2;Temp;Humidity;BMP_temperature;BMP_pressure;BME280_temperature;BME280_humidity;BME280_pressure;Samples;Min_cycle;Max_cycle;Signal;HPM_P1;HPM_P2
2022/07/05 00:01:53;;;;;;;17.83;11.07;;;23.50;60.70;;;;;;5055030;28;20077;-82
2022/07/05 00:04:18;;;;;;;19.42;10.93;;;23.50;60.70;;;;;;5054830;28;20072;-82
2022/07/05 00:09:28;;;;;;;17.60;11.00;;;23.50;60.70;;;;;;5054882;28;20493;-82
2022/07/05 00:11:54;;;;;;;19.90;12.13;;;23.40;60.90;;;;;;5054767;28;20025;-82
2022/07/05 00:14:20;;;;;;;22.20;11.80;;;23.40;60.90;;;;;;5054632;28;20494;-83
2022/07/05 00:16:46;;;;;;;17.55;12.30;;;23.40;60.80;;;;;;5054089;28;20446;-83
2022/07/05 00:19:12;;;;;;;14.85;11.07;;;23.40;61.10;;;;;;5054510;28;20033;-82
2022/07/05 00:21:37;;;;;;;17.40;11.35;;;23.40;61.10;;;;;;5054261;28;20032;-81
2022/07/05 00:24:03;;;;;;;15.63;11.82;;;23.40;61.50;;;;;;5036294;28;20108;-83
2022/07/05 00:26:29;;;;;;;14.93;10.73;;;23.40;61.50;;;;;;5054258;28;20431;-82
2022/07/05 00:28:55;;;;;;;17.33;12.15;;;23.40;61.60;;;;;;5040260;28;20017;-81
2022/07/05 00:31:20;;;;;;;17.80;11.38;;;23.30;61.10;;;;;;5054111;28;20079;-83
2022/07/05 00:33:46;;;;;;;18.85;11.93;;;23.30;61.70;;;;;;5054105;28;20052;-82
2022/07/05 00:36:12;;;;;;;17.95;11.45;;;23.30;61.60;;;;;;5053646;28;20033;-82
2022/07/05 00:38:38;;;;;;;21.80;11.82;;;23.30;61.80;;;;;;5054381;28;20025;-82
2022/07/05 00:41:03;;;;;;;16.17;11.50;;;23.30;61.90;;;;;;5052651;28;20099;-82
2022/07/05 00:43:29;;;;;;;22.70;11.30;;;23.30;62.10;;;;;;5053894;28;20021;-82
2022/07/05 00:45:55;;;;;;;14.25;11.15;;;23.20;61.80;;;;;;5053786;28;20028;-83
2022/07/05 00:48:21;;;;;;;13.50;11.07;;;23.20;61.70;;;;;;5054079;28;20055;-82
2022/07/05 00:50:50;;;;;;;15.68;11.30;;;23.20;61.90;;;;;;5053739;28;20041;-82
2022/07/05 00:53:15;;;;;;;20.13;12.05;;;23.20;62.00;;;;;;5054234;28;20379;-81
2022/07/05 00:55:43;;;;;;;14.93;11.82;;;23.10;62.40;;;;;;5053856;28;20025;-83
2022/07/05 00:58:09;;;;;;;13.93;9.95;;;23.10;62.20;;;;;;5053690;28;20336;-82
2022/07/05 01:00:36;;;;;;;22.67;11.23;;;23.10;61.60;;;;;;5053656;28;20076;-82
2022/07/05 01:03:02;;;;;;;17.25;11.60;;;23.10;62.00;;;;;;5049989;28;20270;-82
2022/07/05 01:05:29;;;;;;;17.23;10.47;;;23.10;62.00;;;;;;5043162;28;20075;-82
2022/07/05 01:07:57;;;;;;;19.65;11.75;;;23.10;61.80;;;;;;5051788;28;20482;-83
2022/07/05 01:10:23;;;;;;;12.95;11.38;;;23.10;61.70;;;;;;5023894;28;20037;-82
2022/07/05 01:12:49;;;;;;;14.40;10.95;;;23.10;62.10;;;;;;5053671;28;20135;-83
2022/07/05 01:15:15;;;;;;;15.68;11.63;;;23.10;62.40;;;;;;5053539;28;20017;-81
2022/07/05 01:17:41;;;;;;;18.35;11.40;;;23.10;62.50;;;;;;5057106;28;20035;-82
2022/07/05 01:20:08;;;;;;;14.63;10.95;;;23.10;63.00;;;;;;5060130;28;20079;-82
2022/07/05 01:22:54;;;;;;;15.70;10.80;;;23.10;62.90;;;;;;5053552;28;20383;-83
2022/07/05 01:25:25;;;;;;;21.23;12.00;;;23.00;62.50;;;;;;5053359;28;20048;-83
2022/07/05 01:27:51;;;;;;;20.70;12.65;;;23.10;62.90;;;;;;5041769;28;20022;-82
2022/07/05 01:30:18;;;;;;;19.67;12.57;;;23.10;61.80;;;;;;5050728;28;20049;-83
2022/07/05 01:32:44;;;;;;;13.13;10.97;;;23.10;61.50;;;;;;5052927;28;20399;-81
2022/07/05 01:35:11;;;;;;;13.65;10.65;;;23.20;61.70;;;;;;5052857;28;20107;-83
2022/07/05 01:37:37;;;;;;;19.55;12.05;;;23.20;62.10;;;;;;5053093;28;20025;-83
2022/07/05 01:40:04;;;;;;;20.75;11.73;;;23.20;62.50;;;;;;5052713;28;20474;-82
2022/07/05 01:42:30;;;;;;;17.08;11.43;;;23.20;62.60;;;;;;5052947;28;20029;-83
2022/07/05 01:44:56;;;;;;;14.15;11.63;;;23.20;62.70;;;;;;5052928;28;20036;-82
2022/07/05 01:47:22;;;;;;;16.70;12.27;;;23.20;62.10;;;;;;5052957;28;20061;-82
2022/07/05 01:49:51;;;;;;;22.23;11.93;;;23.20;62.70;;;;;;5053020;28;20032;-82
2022/07/05 01:52:21;;;;;;;20.10;11.93;;;23.20;62.10;;;;;;5052969;28;20405;-82
2022/07/05 01:54:47;;;;;;;17.88;12.23;;;23.30;62.50;;;;;;5056327;28;20541;-82
2022/07/05 01:57:13;;;;;;;21.40;13.13;;;23.30;62.40;;;;;;5053203;28;20052;-82
2022/07/05 01:59:39;;;;;;;15.18;11.30;;;23.40;62.20;;;;;;5052871;28;20040;-82
2022/07/05 02:02:06;;;;;;;18.38;13.05;;;23.50;62.20;;;;;;5052265;28;20067;-83
2022/07/05 02:04:36;;;;;;;;;;;23.50;62.00;;;;;;5052973;28;20029;-82
2022/07/05 02:07:07;;;;;;;21.25;13.38;;;23.50;61.50;;;;;;5052726;28;19964;-82
2022/07/05 02:09:33;;;;;;;21.65;12.95;;;23.60;61.80;;;;;;5052395;28;20033;-83
2022/07/05 02:11:59;;;;;;;22.08;13.25;;;23.60;62.30;;;;;;5052446;28;20475;-83
2022/07/05 02:14:25;;;;;;;30.45;14.15;;;23.60;61.30;;;;;;5035825;28;20340;-82
2022/07/05 02:16:50;;;;;;;17.60;12.20;;;23.60;61.00;;;;;;5038340;28;20032;-82
2022/07/05 02:19:16;;;;;;;19.85;13.32;;;23.70;60.80;;;;;;5052470;28;20033;-82
2022/07/05 02:21:42;;;;;;;21.48;14.38;;;23.70;60.90;;;;;;5052403;28;20033;-82
2022/07/05 02:24:08;;;;;;;19.30;12.75;;;23.80;61.20;;;;;;5052459;28;20017;-82
2022/07/05 02:26:34;;;;;;;20.38;14.40;;;23.90;61.20;;;;;;5052700;28;20059;-82
2022/07/05 02:29:02;;;;;;;21.05;14.18;;;23.90;61.40;;;;;;5052109;28;20013;-82
2022/07/05 02:31:27;;;;;;;18.17;13.68;;;24.00;61.30;;;;;;5052968;28;20123;-82
2022/07/05 02:33:53;;;;;;;23.63;14.50;;;24.00;60.80;;;;;;5061849;28;20047;-81
2022/07/05 02:36:19;;;;;;;23.58;13.82;;;24.00;61.30;;;;;;5050340;28;20029;-81
2022/07/05 02:38:45;;;;;;;23.23;14.90;;;24.10;61.30;;;;;;5059080;28;20474;-83
2022/07/05 02:41:12;;;;;;;32.58;14.90;;;24.10;60.70;;;;;;5055908;28;20066;-81
2022/07/05 02:43:39;;;;;;;22.50;15.30;;;24.10;60.90;;;;;;5036311;28;20029;-82
2022/07/05 02:46:06;;;;;;;20.92;14.55;;;24.20;61.90;;;;;;5035592;28;20025;-82
2022/07/05 02:48:33;;;;;;;25.20;15.10;;;24.20;60.90;;;;;;5053329;28;20487;-83
2022/07/05 02:50:59;;;;;;;30.02;16.38;;;24.30;60.80;;;;;;5052547;28;20040;-82
2022/07/05 02:53:25;;;;;;;18.30;14.15;;;24.30;60.60;;;;;;5052621;28;20036;-82
2022/07/05 02:55:51;;;;;;;18.58;13.98;;;24.30;60.60;;;;;;5052240;28;20088;-82
2022/07/05 02:58:17;;;;;;;18.00;14.20;;;24.40;60.80;;;;;;5053062;28;20059;-83
2022/07/05 03:00:44;;;;;;;23.30;15.10;;;24.50;60.60;;;;;;5056022;28;20110;-81
2022/07/05 03:03:10;;;;;;;22.23;14.85;;;24.50;60.00;;;;;;5056017;28;20037;-82
2022/07/05 03:05:36;;;;;;;24.73;13.73;;;24.60;60.30;;;;;;5056265;28;20025;-82
2022/07/05 03:08:01;;;;;;;22.58;14.55;;;24.70;60.10;;;;;;5055879;28;20087;-82
2022/07/05 03:10:27;;;;;;;20.15;14.20;;;24.80;59.70;;;;;;5055998;28;20083;-82
2022/07/05 03:12:53;;;;;;;21.67;14.38;;;24.90;60.10;;;;;;5055541;28;20049;-82
2022/07/05 03:15:18;;;;;;;23.75;15.02;;;25.10;59.30;;;;;;5056024;28;20025;-82
2022/07/05 03:17:44;;;;;;;21.10;14.55;;;25.20;59.00;;;;;;5057570;28;20025;-82
2022/07/05 03:20:10;;;;;;;23.67;14.02;;;25.30;58.80;;;;;;5063579;28;20057;-82
2022/07/05 03:22:36;;;;;;;20.85;13.32;;;25.40;59.00;;;;;;5056336;28;20111;-82
2022/07/05 03:25:02;;;;;;;16.60;13.27;;;25.50;59.10;;;;;;5055383;28;20107;-83
2022/07/05 03:27:28;;;;;;;21.30;14.23;;;25.50;58.60;;;;;;5055515;28;20021;-81
2022/07/05 03:29:54;;;;;;;14.43;11.73;;;25.50;57.30;;;;;;5037631;28;20074;-83
2022/07/05 03:32:20;;;;;;;26.25;12.70;;;25.50;57.20;;;;;;5055509;28;20047;-83
2022/07/05 03:34:45;;;;;;;17.65;12.65;;;25.50;57.10;;;;;;5037517;28;20074;-82
2022/07/05 03:37:11;;;;;;;13.55;12.10;;;25.40;56.50;;;;;;5055528;28;20040;-84
2022/07/05 03:39:37;;;;;;;18.98;13.27;;;25.30;56.60;;;;;;5055319;28;20033;-82
2022/07/05 03:42:06;;;;;;;19.85;12.18;;;25.30;57.30;;;;;;5054878;28;20028;-82
2022/07/05 03:44:32;;;;;;;15.98;12.25;;;25.30;57.20;;;;;;5055372;28;20028;-82
2022/07/05 03:46:59;;;;;;;15.93;12.18;;;25.40;57.30;;;;;;5055162;28;20390;-81
2022/07/05 03:49:25;;;;;;;15.10;12.32;;;25.40;56.80;;;;;;5057462;28;20024;-81
2022/07/05 03:51:50;;;;;;;16.17;13.05;;;25.50;57.00;;;;;;5055922;28;20114;-83
2022/07/05 03:54:16;;;;;;;16.05;13.13;;;25.40;57.10;;;;;;5055131;28;20025;-82
2022/07/05 03:56:42;;;;;;;14.73;12.93;;;25.40;57.30;;;;;;5055290;28;20033;-83
2022/07/05 03:59:08;;;;;;;23.60;14.10;;;25.30;57.40;;;;;;5037499;28;20474;-84
2022/07/05 04:01:33;;;;;;;19.13;12.93;;;25.30;57.90;;;;;;5054717;28;20045;-83
2022/07/05 04:03:59;;;;;;;22.60;13.65;;;25.50;57.80;;;;;;5054749;28;20025;-84
2022/07/05 04:06:25;;;;;;;16.42;11.45;;;25.60;57.40;;;;;;5054737;28;20052;-83
2022/07/05 04:08:51;;;;;;;16.85;12.50;;;25.60;57.00;;;;;;5054499;28;20039;-83
2022/07/05 04:11:17;;;;;;;15.25;12.43;;;25.60;56.50;;;;;;5053612;28;20402;-83
2022/07/05 04:13:43;;;;;;;13.25;11.93;;;25.50;56.60;;;;;;5054755;28;20028;-84
2022/07/05 04:16:09;;;;;;;18.13;11.50;;;25.40;57.40;;;;;;5054554;28;20025;-82
2022/07/05 04:18:35;;;;;;;16.02;12.32;;;25.40;57.50;;;;;;5054792;28;20474;-85
2022/07/05 04:21:02;;;;;;;18.70;11.93;;;25.60;57.30;;;;;;5054649;28;20043;-83
2022/07/05 04:23:27;;;;;;;15.45;11.20;;;25.80;56.80;;;;;;5054490;28;20451;-83
2022/07/05 04:25:54;;;;;;;14.75;11.10;;;26.00;56.40;;;;;;5054343;28;20021;-83
2022/07/05 04:28:20;;;;;;;13.13;9.65;;;26.10;54.80;;;;;;5054491;28;20449;-83
2022/07/05 04:30:45;;;;;;;10.52;9.40;;;26.10;54.80;;;;;;5036420;28;20074;-85
2022/07/05 04:33:11;;;;;;;12.23;9.05;;;26.20;54.00;;;;;;5036625;28;20041;-83
2022/07/05 04:35:37;;;;;;;11.85;8.85;;;26.30;53.30;;;;;;5054252;28;20024;-84
2022/07/05 04:38:03;;;;;;;15.23;8.85;;;26.40;52.40;;;;;;5054163;28;20032;-83
2022/07/05 04:40:29;;;;;;;9.70;8.30;;;26.40;53.00;;;;;;5054098;28;20071;-82
2022/07/05 04:42:55;;;;;;;9.93;8.40;;;26.40;52.80;;;;;;5054072;28;20029;-82
2022/07/05 04:45:21;;;;;;;11.07;8.38;;;26.70;52.60;;;;;;5054260;28;20021;-83
2022/07/05 04:47:46;;;;;;;11.18;8.82;;;26.80;52.00;;;;;;5054975;28;20025;-83
2022/07/05 04:50:12;;;;;;;9.70;8.75;;;26.80;52.10;;;;;;5039359;28;20382;-82
2022/07/05 04:52:38;;;;;;;14.82;8.95;;;26.60;52.50;;;;;;5055399;28;20020;-81
2022/07/05 04:55:05;;;;;;;17.02;14.70;;;26.60;52.40;;;;;;5054033;28;20429;-82
2022/07/05 04:57:40;;;;;;;20.98;18.80;;;26.60;52.60;;;;;;5053759;28;20383;-83
2022/07/05 05:00:11;;;;;;;19.05;17.23;;;26.60;52.90;;;;;;5054622;28;20036;-83
2022/07/05 05:02:37;;;;;;;25.75;21.30;;;26.80;52.80;;;;;;5053520;28;20084;-81
2022/07/05 05:05:03;;;;;;;23.85;21.38;;;27.10;52.20;;;;;;5053633;28;20095;-83
2022/07/05 05:07:29;;;;;;;24.88;20.55;;;27.30;52.60;;;;;;5053944;28;20047;-82
2022/07/05 05:09:55;;;;;;;17.73;15.85;;;27.40;52.20;;;;;;5054178;28;20021;-82
2022/07/05 05:12:22;;;;;;;21.90;16.20;;;27.50;51.60;;;;;;5053847;28;20053;-83
2022/07/05 05:14:48;;;;;;;18.23;13.90;;;27.60;51.50;;;;;;5054958;28;20024;-82
2022/07/05 05:17:14;;;;;;;17.43;12.77;;;28.10;51.90;;;;;;5036197;28;20422;-82
2022/07/05 05:19:40;;;;;;;23.42;12.65;;;29.00;49.60;;;;;;5036961;28;20029;-82
2022/07/05 05:22:06;;;;;;;13.98;10.95;;;30.00;48.30;;;;;;5057021;28;20439;-80
2022/07/05 05:24:34;;;;;;;15.32;10.93;;;31.10;46.70;;;;;;5059271;28;20751;-83
2022/07/05 05:27:00;;;;;;;18.92;11.30;;;32.20;44.60;;;;;;5055363;28;20024;-83
2022/07/05 05:29:26;;;;;;;16.98;10.00;;;32.90;43.10;;;;;;5053189;28;20028;-84
2022/07/05 05:31:52;;;;;;;15.80;10.80;;;33.70;42.80;;;;;;5054779;28;20407;-82
2022/07/05 05:34:18;;;;;;;15.75;10.10;;;34.50;41.30;;;;;;5057816;28;20071;-83
2022/07/05 05:36:44;;;;;;;12.37;9.47;;;35.30;40.60;;;;;;5056260;28;20033;-82
2022/07/05 05:39:10;;;;;;;16.80;9.07;;;36.10;39.70;;;;;;5057202;28;20021;-83
2022/07/05 05:41:39;;;;;;;12.63;9.52;;;36.50;38.90;;;;;;5056940;28;20075;-83
2022/07/05 05:44:05;;;;;;;10.88;9.65;;;36.90;38.00;;;;;;5037757;28;20017;-85
2022/07/05 05:46:31;;;;;;;17.33;8.75;;;37.50;37.20;;;;;;5055207;28;20028;-82
2022/07/05 05:48:58;;;;;;;11.17;8.57;;;37.20;36.20;;;;;;5054353;28;20028;-83
2022/07/05 05:51:24;;;;;;;15.35;9.25;;;37.00;36.80;;;;;;5056234;28;20059;-84
2022/07/05 05:53:50;;;;;;;11.98;8.27;;;37.50;36.90;;;;;;5055419;28;20013;-82
2022/07/05 05:56:15;;;;;;;23.17;9.90;;;38.20;36.20;;;;;;5038392;28;20040;-82
2022/07/05 05:58:41;;;;;;;13.27;8.85;;;;;;;;;;5055787;28;20036;-84
2022/07/05 06:01:07;;;;;;;13.35;8.07;;;38.90;34.50;;;;;;5055805;28;20069;-82
2022/07/05 06:03:33;;;;;;;15.38;8.73;;;39.30;35.50;;;;;;5038425;28;20032;-83
2022/07/05 06:05:59;;;;;;;14.80;7.95;;;39.70;34.50;;;;;;5055595;28;20025;-82
2022/07/05 06:08:25;;;;;;;17.08;8.45;;;40.20;34.50;;;;;;5038291;28;20053;-83
2022/07/05 06:10:50;;;;;;;18.58;9.02;;;40.40;34.00;;;;;;5054304;28;20043;-85
2022/07/05 06:13:16;;;;;;;59.10;12.00;;;41.10;34.00;;;;;;5054535;28;20049;-84
2022/07/05 06:15:43;;;;;;;14.90;7.80;;;41.40;33.60;;;;;;5045453;28;20096;-82
2022/07/05 06:18:10;;;;;;;15.88;7.63;;;41.60;32.60;;;;;;5054726;28;20032;-82
2022/07/05 06:20:38;;;;;;;12.48;7.30;;;40.90;33.10;;;;;;5059195;28;20020;-83
2022/07/05 06:23:05;;;;;;;18.08;7.95;;;41.50;32.90;;;;;;5040954;28;20060;-82
2022/07/05 06:25:32;;;;;;;11.98;7.68;;;42.50;32.40;;;;;;5054887;28;20025;-82
2022/07/05 06:28:03;;;;;;;11.52;7.68;;;43.10;31.70;;;;;;5055296;28;20056;-83
2022/07/05 06:30:32;;;;;;;7.93;7.13;;;43.20;30.70;;;;;;5055210;28;20024;-83
2022/07/05 06:32:58;;;;;;;19.00;7.28;;;42.10;30.80;;;;;;5053294;28;20482;-82
2022/07/05 06:35:24;;;;;;;13.00;6.97;;;42.00;31.50;;;;;;5049475;28;20022;-83
2022/07/05 06:37:53;;;;;;;15.50;7.97;;;42.10;31.50;;;;;;5044144;28;20464;-83
2022/07/05 06:40:30;;;;;;;13.65;7.20;;;42.30;31.70;;;;;;5054237;28;20027;-84
2022/07/05 06:42:59;;;;;;;21.60;8.27;;;42.70;31.60;;;;;;5053708;28;20060;-81
2022/07/05 06:45:25;;;;;;;16.92;7.20;;;43.80;31.10;;;;;;5054013;28;20025;-83
2022/07/05 06:47:58;;;;;;;15.40;6.90;;;44.80;30.30;;;;;;5046000;28;20014;-84
2022/07/05 06:50:26;;;;;;;15.88;7.65;;;45.00;29.90;;;;;;5031994;28;20086;-83
2022/07/05 06:52:52;;;;;;;10.73;6.78;;;44.90;29.80;;;;;;5053950;28;20028;-83
2022/07/05 06:55:18;;;;;;;10.02;7.45;;;45.20;29.70;;;;;;5053151;28;20313;-83
2022/07/05 06:57:45;;;;;;;7.65;6.85;;;45.70;29.20;;;;;;5040063;28;20024;-84
2022/07/05 07:00:12;;;;;;;7.07;6.07;;;46.20;28.80;;;;;;5053275;28;20044;-84
2022/07/05 07:02:38;;;;;;;6.72;6.03;;;;;;;;;;5053249;28;20044;-83
2022/07/05 07:05:04;;;;;;;7.30;6.32;;;44.60;28.80;;;;;;5041619;28;20052;-82
2022/07/05 07:10:18;;;;;;;6.68;6.00;;;42.50;30.10;;;;;;5055681;28;20550;-82
2022/07/05 07:12:44;;;;;;;6.80;6.05;;;42.70;30.10;;;;;;5055038;28;20115;-82
2022/07/05 07:15:10;;;;;;;;;;;42.40;30.30;;;;;;5055583;28;20072;-82
2022/07/05 07:17:36;;;;;;;6.95;5.93;;;42.30;30.70;;;;;;5057483;28;19976;-83
2022/07/05 07:20:03;;;;;;;;;;;42.30;30.40;;;;;;5043498;28;20441;-83
2022/07/05 07:22:29;;;;;;;7.30;6.43;;;42.20;31.00;;;;;;5061544;28;19905;-82
2022/07/05 07:24:54;;;;;;;7.18;6.45;;;43.40;30.40;;;;;;5059013;28;20047;-83
2022/07/05 07:27:20;;;;;;;6.95;6.30;;;44.60;29.30;;;;;;5058139;28;20050;-83
2022/07/05 07:29:46;;;;;;;7.30;6.60;;;43.90;29.30;;;;;;5054957;28;20021;-81
2022/07/05 07:32:12;;;;;;;11.00;6.60;;;43.50;29.60;;;;;;5054719;28;20037;-81
2022/07/05 07:34:38;;;;;;;10.80;7.53;;;43.60;29.70;;;;;;5054918;28;20017;-83
2022/07/05 07:37:05;;;;;;;9.32;6.80;;;43.90;29.40;;;;;;5054683;28;20029;-81
2022/07/05 07:39:33;;;;;;;9.95;6.88;;;44.60;29.50;;;;;;5054021;28;20021;-83
2022/07/05 07:41:59;;;;;;;8.70;6.82;;;44.40;29.30;;;;;;5053858;28;20024;-83
2022/07/05 07:44:25;;;;;;;11.32;6.75;;;44.50;29.40;;;;;;5048697;28;20056;-81
2022/07/05 07:46:51;;;;;;;12.48;6.53;;;44.90;29.50;;;;;;5055884;28;20466;-82
2022/07/05 07:49:17;;;;;;;10.13;6.60;;;45.90;29.10;;;;;;5045808;28;20025;-84
2022/07/05 07:51:43;;;;;;;6.90;6.18;;;46.90;28.80;;;;;;5058919;28;20037;-82
2022/07/05 07:54:10;;;;;;;8.48;6.38;;;47.50;28.30;;;;;;5058616;28;20493;-82
2022/07/05 07:56:36;;;;;;;10.15;6.63;;;47.20;28.20;;;;;;5057635;28;20040;-82
2022/07/05 07:59:02;;;;;;;8.43;6.55;;;47.20;28.20;;;;;;5058460;28;20021;-82
2022/07/05 08:01:27;;;;;;;7.38;6.30;;;46.20;28.50;;;;;;5056931;28;20454;-84
2022/07/05 08:03:53;;;;;;;19.42;8.40;;;46.70;28.20;;;;;;5040519;28;20039;-83
2022/07/05 08:06:19;;;;;;;19.05;8.05;;;;;;;;;;5059411;28;20100;-82
2022/07/05 08:08:47;;;;;;;11.13;6.63;;;;;;;;;;5069150;28;20088;-83
2022/07/05 08:11:13;;;;;;;13.23;7.20;;;;;;;;;;5064888;28;20035;-82
2022/07/05 08:13:40;;;;;;;130.50;22.30;;;;;;;;;;5057242;28;20024;-84
2022/07/05 08:16:07;;;;;;;144.32;26.15;;;;;;;;;;5039870;28;20399;-82
2022/07/05 08:21:31;;;;;;;6.60;6.10;;;;;;;;;;5050385;28;20054;-81
2022/07/05 08:23:57;;;;;;;126.05;23.88;;;;;;;;;;5025987;28;20474;-82
2022/07/05 08:26:23;;;;;;;699.75;148.98;;;;;;;;;;5056361;28;20020;-82
2022/07/05 08:28:50;;;;;;;81.85;17.27;;;;;;;;;;5055828;28;20079;-82
2022/07/05 08:31:16;;;;;;;13.70;7.70;;;;;;;;;;5055995;28;20033;-83
2022/07/05 08:33:42;;;;;;;9.57;6.43;;;;;;;;;;5039318;28;20029;-82
2022/07/05 08:36:08;;;;;;;16.05;7.97;;;;;;;;;;5038359;28;20032;-83
2022/07/05 08:38:34;;;;;;;15.02;7.60;;;;;;;;;;5036769;28;20116;-82
2022/07/05 08:41:01;;;;;;;9.48;6.47;;;;;;;;;;5044768;28;20025;-82
2022/07/05 08:43:28;;;;;;;73.13;16.42;;;;;;;;;;5057627;28;20029;-81
2022/07/05 08:45:55;;;;;;;43.58;12.13;;;;;;;;;;5053948;28;20118;-81
2022/07/05 08:48:22;;;;;;;7.03;6.43;;;;;;;;;;5053915;28;20021;-83
2022/07/05 08:50:50;;;;;;;7.55;6.70;;;;;;;;;;5053843;28;20049;-82
2022/07/05 08:53:19;;;;;;;14.52;7.65;;;43.90;28.00;;;;;;5036336;28;20090;-83
2022/07/05 08:55:45;;;;;;;7.97;6.88;;;43.40;29.70;;;;;;5052890;28;20430;-84
2022/07/05 08:58:12;;;;;;;9.05;7.18;;;44.10;29.70;;;;;;5053510;28;20017;-83
2022/07/05 09:00:39;;;;;;;8.15;7.03;;;45.10;29.10;;;;;;5035364;28;20443;-82
2022/07/05 09:03:06;;;;;;;9.13;7.10;;;46.00;28.70;;;;;;5036853;28;20105;-83
2022/07/05 09:05:42;;;;;;;8.43;7.63;;;46.80;28.30;;;;;;5038997;28;20029;-82
2022/07/05 09:08:12;;;;;;;8.80;6.90;;;47.70;27.90;;;;;;5039678;28;20020;-83
2022/07/05 09:10:42;;;;;;;8.75;7.88;;;47.30;27.60;;;;;;5056284;28;20506;-83
2022/07/05 09:13:08;;;;;;;8.30;7.43;;;45.60;28.00;;;;;;5057483;28;20033;-83
2022/07/05 09:15:33;;;;;;;9.57;7.35;;;45.20;28.80;;;;;;5056957;28;20065;-83
2022/07/05 09:17:59;;;;;;;10.30;7.57;;;45.70;28.80;;;;;;5057844;28;20088;-84
2022/07/05 09:20:27;;;;;;;8.93;8.02;;;45.90;28.50;;;;;;5040234;28;20025;-84
2022/07/05 09:22:55;;;;;;;12.25;8.38;;;46.20;28.70;;;;;;5056295;28;20170;-82
2022/07/05 09:25:23;;;;;;;13.90;6.57;;;46.90;28.20;;;;;;5055844;28;20021;-82
2022/07/05 09:27:54;;;;;;;9.88;7.03;;;47.40;28.00;;;;;;5038771;28;20059;-83
2022/07/05 09:30:29;;;;;;;9.43;7.03;;;47.50;27.80;;;;;;5049714;28;20043;-84
2022/07/05 09:33:08;;;;;;;8.83;7.30;;;46.70;27.80;;;;;;5043978;28;20038;-83
2022/07/05 09:35:39;;;;;;;9.18;7.82;;;45.20;28.40;;;;;;5054339;28;20021;-82
2022/07/05 09:38:15;;;;;;;9.40;8.38;;;43.80;29.10;;;;;;5056659;28;20021;-82
2022/07/05 09:40:49;;;;;;;13.38;9.75;;;40.90;30.70;;;;;;5057023;28;20017;-83
2022/07/05 09:43:17;;;;;;;11.13;9.30;;;38.70;33.50;;;;;;5055269;28;20111;-83
2022/07/05 09:45:53;;;;;;;11.82;10.25;;;37.60;33.60;;;;;;5041710;28;20360;-83
2022/07/05 09:48:19;;;;;;;11.30;10.20;;;37.10;35.10;;;;;;5039044;28;20459;-82
2022/07/05 09:50:45;;;;;;;10.77;9.82;;;36.60;35.50;;;;;;5057340;28;20024;-82
2022/07/05 09:53:14;;;;;;;12.00;10.80;;;36.00;36.00;;;;;;5057016;28;20040;-82
2022/07/05 09:55:40;;;;;;;14.32;12.80;;;35.50;36.80;;;;;;5056443;28;20021;-82
2022/07/05 09:58:07;;;;;;;19.50;10.45;;;35.50;37.50;;;;;;5038799;28;20108;-83
2022/07/05 10:00:33;;;;;;;11.48;10.20;;;36.20;37.00;;;;;;5038451;28;20032;-85
2022/07/05 10:03:01;;;;;;;11.40;10.32;;;37.10;36.50;;;;;;5054555;28;20106;-83
2022/07/05 10:05:30;;;;;;;11.68;10.07;;;40.40;33.60;;;;;;5037945;28;20028;-83
2022/07/05 10:08:01;;;;;;;10.57;9.32;;;40.60;33.20;;;;;;5055840;28;20025;-81
2022/07/05 10:10:32;;;;;;;10.82;9.90;;;40.00;32.50;;;;;;5057509;28;20028;-82
2022/07/05 10:13:01;;;;;;;13.40;9.18;;;38.80;33.90;;;;;;5038182;28;20402;-84
2022/07/05 10:15:30;;;;;;;13.48;8.90;;;39.30;33.90;;;;;;5056258;28;20023;-82
2022/07/05 10:18:11;;;;;;;10.05;9.15;;;40.30;32.90;;;;;;5037172;28;20118;-82
2022/07/05 10:20:37;;;;;;;10.85;9.77;;;41.00;31.90;;;;;;5031043;28;20147;-84
2022/07/05 10:23:07;;;;;;;10.35;9.27;;;40.40;31.80;;;;;;5056086;28;20041;-83
2022/07/05 10:25:36;;;;;;;10.38;9.40;;;38.80;32.90;;;;;;5038098;28;20508;-82
2022/07/05 10:28:03;;;;;;;12.32;11.23;;;37.60;35.00;;;;;;5036755;28;20021;-82
2022/07/05 10:30:29;;;;;;;11.98;10.77;;;37.10;35.30;;;;;;5057624;28;20021;-83
2022/07/05 10:32:56;;;;;;;12.02;10.77;;;36.50;35.80;;;;;;5055811;28;20037;-83
2022/07/05 10:35:22;;;;;;;12.18;11.00;;;36.00;36.40;;;;;;5038954;28;20033;-83
2022/07/05 10:37:49;;;;;;;13.32;11.93;;;35.50;37.50;;;;;;5027776;28;20028;-82
2022/07/05 10:40:16;;;;;;;11.80;10.68;;;34.80;39.20;;;;;;5056667;28;20437;-82
2022/07/05 10:43:01;;;;;;;17.20;11.27;;;34.20;40.70;;;;;;5057862;28;20025;-84
2022/07/05 10:45:34;;;;;;;16.33;12.18;;;33.70;41.90;;;;;;5055206;28;20025;-84
2022/07/05 10:48:23;;;;;;;19.38;12.43;;;33.00;43.90;;;;;;5055230;28;20112;-82
2022/07/05 10:50:49;;;;;;;15.27;13.60;;;31.90;43.50;;;;;;5012823;28;20623;-83
2022/07/05 10:53:17;;;;;;;15.27;13.70;;;31.80;45.80;;;;;;5017358;28;20058;-84
2022/07/05 10:55:56;;;;;;;15.57;13.93;;;31.60;45.80;;;;;;5021658;28;20017;-82
2022/07/05 10:58:40;;;;;;;17.55;15.07;;;31.10;46.60;;;;;;5007683;28;20030;-81
2022/07/05 11:01:21;;;;;;;16.27;14.65;;;30.60;47.80;;;;;;5016112;28;20133;-84
2022/07/05 11:03:48;;;;;;;19.77;15.40;;;30.00;48.70;;;;;;4999696;28;20057;-83
2022/07/05 11:06:46;;;;;;;23.50;18.75;;;29.90;50.30;;;;;;5012877;28;20590;-82
2022/07/05 11:09:11;;;;;;;18.00;13.77;;;29.50;51.10;;;;;;5001010;28;20518;-81
2022/07/05 11:11:57;;;;;;;15.43;13.93;;;29.20;52.30;;;;;;5013117;28;20053;-82
2022/07/05 11:14:29;;;;;;;20.43;15.60;;;29.00;52.50;;;;;;4954861;28;20114;-83
2022/07/05 11:17:19;;;;;;;22.73;17.70;;;29.00;53.40;;;;;;4955512;28;20273;-82
2022/07/05 11:20:00;;;;;;;18.92;16.77;;;29.00;54.10;;;;;;4957545;28;20481;-83
2022/07/05 11:22:26;;;;;;;17.77;14.82;;;29.20;53.80;;;;;;4969136;28;20050;-82
2022/07/05 11:24:52;;;;;;;20.50;14.05;;;29.30;54.00;;;;;;4957348;28;20039;-82
2022/07/05 11:27:18;;;;;;;22.10;16.10;;;29.50;53.40;;;;;;4956961;28;20047;-84
2022/07/05 11:29:50;;;;;;;19.73;13.48;;;29.90;53.10;;;;;;4960286;28;20070;-84
2022/07/05 11:32:34;;;;;;;25.27;18.55;;;30.30;51.50;;;;;;4944441;28;20094;-82
2022/07/05 11:35:15;;;;;;;15.30;12.38;;;30.70;50.70;;;;;;4964375;28;20031;-82
2022/07/05 11:38:09;;;;;;;17.67;12.10;;;31.00;49.20;;;;;;5005091;28;20025;-83
2022/07/05 11:40:40;;;;;;;11.77;10.70;;;31.10;48.60;;;;;;4997854;28;20022;-82
2022/07/05 11:43:07;;;;;;;12.73;10.55;;;31.00;48.30;;;;;;4998549;28;20030;-83
2022/07/05 11:45:34;;;;;;;13.13;10.05;;;30.40;49.00;;;;;;4997521;28;20038;-84
2022/07/05 11:48:03;;;;;;;15.33;11.00;;;30.00;50.10;;;;;;5008191;28;20137;-82
2022/07/05 11:50:33;;;;;;;19.13;12.95;;;29.90;50.90;;;;;;5008320;28;20027;-84
2022/07/05 11:53:00;;;;;;;19.85;11.15;;;29.90;50.60;;;;;;5047793;28;20025;-82
2022/07/05 11:55:31;;;;;;;12.05;10.85;;;29.80;50.40;;;;;;5058215;28;20025;-85
2022/07/05 11:57:58;;;;;;;23.05;13.10;;;29.70;49.90;;;;;;5016753;28;20088;-84
2022/07/05 12:00:31;;;;;;;19.48;12.60;;;29.50;50.30;;;;;;5016338;28;20038;-83
2022/07/05 12:02:58;;;;;;;16.33;11.60;;;29.10;51.30;;;;;;5017700;28;20084;-85
2022/07/05 12:05:32;;;;;;;13.18;11.80;;;28.80;52.40;;;;;;5018277;28;20056;-83
2022/07/05 12:07:58;;;;;;;14.85;13.27;;;28.60;53.30;;;;;;5002549;28;20096;-82
2022/07/05 12:13:09;;;;;;;13.00;11.60;;;28.40;54.50;;;;;;5037801;28;20075;-83
2022/07/05 12:15:36;;;;;;;17.70;12.32;;;28.50;54.70;;;;;;5036827;28;20093;-83
2022/07/05 12:18:03;;;;;;;12.55;11.35;;;28.70;53.80;;;;;;5038028;28;20542;-82
2022/07/05 12:20:30;;;;;;;13.18;11.80;;;28.80;53.50;;;;;;5036173;28;20030;-84
2022/07/05 12:22:58;;;;;;;15.02;12.13;;;28.90;53.50;;;;;;5036975;28;20033;-82
2022/07/05 12:25:25;;;;;;;14.82;11.45;;;28.90;53.10;;;;;;5023328;28;20042;-81
2022/07/05 12:27:53;;;;;;;15.45;11.43;;;29.00;52.90;;;;;;5036215;28;20557;-83
2022/07/05 12:30:19;;;;;;;14.52;12.13;;;29.10;52.60;;;;;;5039513;28;20025;-82
2022/07/05 12:33:02;;;;;;;18.50;12.43;;;29.20;52.10;;;;;;5057288;28;20029;-84
2022/07/05 12:35:40;;;;;;;14.65;12.27;;;29.40;52.30;;;;;;5057979;28;20327;-83
2022/07/05 12:38:18;;;;;;;15.98;12.00;;;29.30;50.80;;;;;;5059493;28;20055;-82
2022/07/05 12:40:59;;;;;;;14.95;12.18;;;29.20;52.40;;;;;;5057650;28;20021;-82
2022/07/05 12:43:25;;;;;;;13.70;12.18;;;29.20;52.50;;;;;;5040957;28;20028;-83
2022/07/05 12:46:07;;;;;;;14.50;12.60;;;29.00;53.20;;;;;;5058812;28;20021;-84
2022/07/05 12:48:35;;;;;;;14.18;12.77;;;28.70;53.70;;;;;;5057050;28;20087;-81
2022/07/05 12:51:02;;;;;;;15.40;13.85;;;28.60;54.60;;;;;;5056477;28;20024;-82
2022/07/05 12:59:03;;;;;;;17.35;14.02;;;28.50;54.60;;;;;;5053847;28;20120;-83